METAR AND TAF INFORMATION
METAR FOR PFEL
ADDS - METARS form results

(1359 UTC 11 July 2020)
Data provider http://aviationweather.gov/metar/data/
 
METAR text: PFEL 111356Z AUTO 34005KT 10SM CLR 12/05 A2979 RMK AO2 SLP087 T01220050
Conditions at: PFEL (ELIM APRT , AK, US) observed 1356 UTC 11 July 2020
Temperature: 12.2°C (54°F)
Dewpoint: 5.0°C (41°F) [RH = 61%]
Pressure (altimeter): 29.79 inches Hg (1008.9 mb)
[Sea-level pressure: 1008.7 mb]
Winds: from the NNW (340 degrees) at 6 MPH (5 knots; 2.6 m/s)
Visibility: 10 or more miles (16+ km)
Ceiling: at least 12,000 feet AGL
Clouds: sky clear below 12,000 feet AGL
Weather: automated observation with no human augmentation;
there may or may not be significant weather present at this time

 AIRPORT MAP

 RUNWAY INFORMATION
Runway 01 Runway length 3401 ft Runway width 60 ft
Runway elevation 162 ft Runway displaced threshold 0 ft Runway heading 0
Runway 19 Runway length 3401 ft Runway width 60 ft
Runway elevation 123 ft Runway displaced threshold 0 ft Runway heading 0

 AIRPORT FREQUENCIES

 AIRPORT NEAR NAVIGATION AIDS